Terminal Aerodrome Forecast
Issued by NWS

Home | Current Version | Previous Version | Text Only | Print | Product List | Glossary On
Versions: 1 2 3 4 5 6 7 8 9 10 11 12 13 14 15 16 17 18 19 20 21 22 23
000
FTUS44 KLZK 051700
TAFLLQ
TAF
KLLQ 051737Z 0518/0618 01010G18KT P6SM SCT050 SCT250
     FM052200 02010KT P6SM SCT250
     FM060200 VRB03KT P6SM SCT250
     FM060800 VRB03KT 4SM BR SCT010 SCT250=

USA.gov is the U.S. government's official web portal to all federal, state and local government web resources and services.